• Join FlightAware (Why Join?)
  • Login
  • US Flag 
06:01AM EST


 

Airport Tracker/Info


-or-


 

Live Flight TrackerFlight Track Log ✈ UCA3598 ✈ 15-Apr-2014 ✈ KIAD - KBGM

Flight Track Log - Related Links

Times and Time Zones

All times are in EDT time to prevent confusion due to time zone crossing. See the UCA3598 flight status page for this flight to view local times or setup timezone preferences in your user account.

Time Position Orientation Groundspeed Altitude Reporting Facility
EDT Latitude Longitude Course Direction KTS MPH feet Rate Location/Type
10:30PM 39.0000 -77.4833 North 118 136 4,000  Level Potomac TRACON
10:31PM 39.0333 -77.5167 322° Northwest 127 146 5,600 1,500 Climbing Potomac TRACON
10:32PM 39.0667 -77.5167 360° North 148 170 7,100 1,200 Climbing Potomac TRACON
10:33PM 39.1167 -77.5000 14° North 175 201 8,100 1,020 Climbing Potomac TRACON
10:34PM 39.3510 -77.4500 North  Level FlightAware Approximate
10:34PM 39.1667 -77.5000 360° North 196 226 9,100  Level Potomac TRACON
10:35PM 39.0207 -77.4500 North  Level FlightAware Approximate
10:35PM 39.2167 -77.5000 360° North 214 246 10,200  Level Potomac TRACON
10:36PM 39.2833 -77.4833 11° North 230 265 11,300 1,080 Climbing Potomac TRACON
10:37PM 39.3844 -77.4842 360° North 240 276 13,100 1,080 Climbing New York Center
10:38PM 39.4578 -77.4778 North 251 289 14,300 1,200 Climbing New York Center
10:39PM 39.5356 -77.4689 North 263 303 15,500 1,200 Climbing New York Center
10:40PM 39.6217 -77.4556 North 275 316 16,800 960 Climbing New York Center
10:41PM 39.6969 -77.4519 North 288 331 17,500 900 Climbing New York Center
10:42PM 39.7908 -77.4528 360° North 302 348 18,600 720 Climbing New York Center
10:43PM 39.8681 -77.4519 360° North 312 359 19,000 180 Climbing New York Center
10:44PM 39.9744 -77.4511 360° North 331 381 19,000  Level New York Center
10:45PM 40.0633 -77.4244 13° North 354 407 19,000  Level New York Center
10:46PM 40.1717 -77.3561 26° Northeast 375 432 19,000  Level New York Center
10:47PM 40.2578 -77.3072 23° Northeast 382 440 19,000  Level New York Center
10:48PM 40.3614 -77.2433 25° Northeast 377 434 19,000  Level New York Center
10:49PM 40.4494 -77.1914 24° Northeast 372 428 19,000  Level New York Center
10:50PM 40.5531 -77.1275 25° Northeast 372 428 19,000  Level New York Center
10:51PM 40.6414 -77.0753 24° Northeast 372 428 19,000  Level New York Center
10:52PM 40.7381 -77.0186 24° Northeast 372 428 19,000  Level New York Center
10:53PM 40.8350 -76.9589 25° Northeast 372 428 19,000 -120 Level New York Center
10:54PM 40.9317 -76.9017 24° Northeast 372 428 18,800 -480 Descending New York Center
10:55PM 41.0331 -76.8392 25° Northeast 383 441 18,100 -720 Descending New York Center
10:56PM 41.1361 -76.7769 24° Northeast 391 450 17,400 -600 Descending New York Center
10:57PM 41.2350 -76.7167 25° Northeast 391 450 17,000 -180 Descending New York Center
10:58PM 41.3406 -76.6486 26° Northeast 386 444 17,100  Climbing New York Center
10:59PM 41.4350 -76.5903 25° Northeast 380 437 17,100 -300 Level New York Center
11:00PM 41.5208 -76.5369 25° Northeast 372 428 16,600 -1,020 Descending New York Center
11:01PM 41.6197 -76.4733 26° Northeast 377 434 15,100 -1,620 Descending New York Center
11:02PM 41.7228 -76.4097 25° Northeast 369 425 13,400 900 Descending New York Center
11:03PM 41.8008 -76.3442 32° Northeast 349 402 17,000 1,800 Climbing New York Center
11:04PM 41.8661 -76.2853 34° Northeast 300 345 17,000  Level New York Center
11:05PM 41.9203 -76.2425 30° Northeast 258 297 17,000  Level New York Center
11:06PM 41.9722 -76.1939 35° Northeast 236 272 17,000  Level New York Center
11:07PM 42.0244 -76.1450 35° Northeast 214 246 17,000  Level New York Center
11:08PM 42.0544 -76.0833 57° Northeast 194 223 17,000  Level New York Center
11:09PM 42.0642 -76.0031 81° East 200 230 17,000  Level New York Center
11:10PM 42.0778 -75.9314 76° East 200 230 17,000  Level New York Center
11:11PM 42.1142 -75.9036 30° Northeast 161 185 17,000  Level New York Center
11:12PM 42.1444 -75.9283 329° Northwest 106 122 17,000  Level New York Center
11:13PM 42.1706 -75.9500 328° Northwest 106 122 17,000  Level New York Center
11:14PM 42.1950 -75.9631 338° Northwest 106 122 17,000  Level New York Center
11:15PM 42.2192 -75.9789 334° Northwest 106 122 17,000  Level New York Center
11:16PM 42.2456 -75.9950 336° Northwest 106 122 17,000  Level New York Center